Terminal Aerodrome Forecast
Issued by NWS

Home | Current Version | Previous Version | Text Only | Print | Product List | Glossary On
Versions: 1 2 3 4 5 6 7 8 9 10 11 12 13 14 15 16 17
000
FTUS45 KLKN 211834 AAA
TAFEKO
TAF AMD
KEKO 211834Z 2119/2218 21015G25KT P6SM -SHRA BKN040
     FM212000 23022G32KT P6SM -SHRA OVC040
     FM212300 24013G23KT 3SM -SN BR BKN015
     FM220400 VRB06KT P6SM VCSH BKN040=

USA.gov is the U.S. government's official web portal to all federal, state and local government web resources and services.